sensor_id;sensor_type;location;lat;lon;timestamp;P1;P2;P0
62054;PMS5003;48653;51.742;-1.256;2024-01-16T00:03:45;36;29;
62054;PMS5003;48653;51.742;-1.256;2024-01-16T00:06:10;34;31;
62054;PMS5003;48653;51.742;-1.256;2024-01-16T00:08:35;46;33;
62054;PMS5003;48653;51.742;-1.256;2024-01-16T00:11:01;39;31;
62054;PMS5003;48653;51.742;-1.256;2024-01-16T00:13:26;41;32;
62054;PMS5003;48653;51.742;-1.256;2024-01-16T00:15:52;42;36;
62054;PMS5003;48653;51.742;-1.256;2024-01-16T00:18:17;41;33;
62054;PMS5003;48653;51.742;-1.256;2024-01-16T00:20:43;37;31;
62054;PMS5003;48653;51.742;-1.256;2024-01-16T00:23:08;44;36;
62054;PMS5003;48653;51.742;-1.256;2024-01-16T00:25:34;35;28;
62054;PMS5003;48653;51.742;-1.256;2024-01-16T00:28:01;37;30;
62054;PMS5003;48653;51.742;-1.256;2024-01-16T00:30:25;36;30;
62054;PMS5003;48653;51.742;-1.256;2024-01-16T00:32:51;29;25;
62054;PMS5003;48653;51.742;-1.256;2024-01-16T00:35:21;37;27;
62054;PMS5003;48653;51.742;-1.256;2024-01-16T00:37:41;31;27;
62054;PMS5003;48653;51.742;-1.256;2024-01-16T00:40:08;30;27;
62054;PMS5003;48653;51.742;-1.256;2024-01-16T00:42:32;31;28;
62054;PMS5003;48653;51.742;-1.256;2024-01-16T00:44:58;33;29;
62054;PMS5003;48653;51.742;-1.256;2024-01-16T00:47:25;27;27;
62054;PMS5003;48653;51.742;-1.256;2024-01-16T00:49:48;46;36;
62054;PMS5003;48653;51.742;-1.256;2024-01-16T00:52:14;37;34;
62054;PMS5003;48653;51.742;-1.256;2024-01-16T00:54:39;37;31;
62054;PMS5003;48653;51.742;-1.256;2024-01-16T00:57:05;48;41;
62054;PMS5003;48653;51.742;-1.256;2024-01-16T00:59:30;51;43;
62054;PMS5003;48653;51.742;-1.256;2024-01-16T01:01:55;44;41;
62054;PMS5003;48653;51.742;-1.256;2024-01-16T01:04:21;44;39;
62054;PMS5003;48653;51.742;-1.256;2024-01-16T01:06:46;45;39;
62054;PMS5003;48653;51.742;-1.256;2024-01-16T01:09:12;46;42;
62054;PMS5003;48653;51.742;-1.256;2024-01-16T01:11:38;49;43;
62054;PMS5003;48653;51.742;-1.256;2024-01-16T01:14:08;52;45;
62054;PMS5003;48653;51.742;-1.256;2024-01-16T01:18:54;54;45;
62054;PMS5003;48653;51.742;-1.256;2024-01-16T01:21:20;45;43;
62054;PMS5003;48653;51.742;-1.256;2024-01-16T01:23:45;51;41;
62054;PMS5003;48653;51.742;-1.256;2024-01-16T01:26:11;59;38;
62054;PMS5003;48653;51.742;-1.256;2024-01-16T01:28:36;59;44;
62054;PMS5003;48653;51.742;-1.256;2024-01-16T01:31:01;49;42;
62054;PMS5003;48653;51.742;-1.256;2024-01-16T01:33:27;55;41;
62054;PMS5003;48653;51.742;-1.256;2024-01-16T01:35:52;55;40;
62054;PMS5003;48653;51.742;-1.256;2024-01-16T01:38:17;49;40;
62054;PMS5003;48653;51.742;-1.256;2024-01-16T01:40:43;56;40;
62054;PMS5003;48653;51.742;-1.256;2024-01-16T01:43:17;52;43;
62054;PMS5003;48653;51.742;-1.256;2024-01-16T01:45:34;43;35;
62054;PMS5003;48653;51.742;-1.256;2024-01-16T01:47:59;51;42;
62054;PMS5003;48653;51.742;-1.256;2024-01-16T01:50:24;47;37;
62054;PMS5003;48653;51.742;-1.256;2024-01-16T01:52:49;44;36;
62054;PMS5003;48653;51.742;-1.256;2024-01-16T01:55:14;41;35;
62054;PMS5003;48653;51.742;-1.256;2024-01-16T01:57:41;36;34;
62054;PMS5003;48653;51.742;-1.256;2024-01-16T02:00:06;42;31;
62054;PMS5003;48653;51.742;-1.256;2024-01-16T02:02:31;41;38;
62054;PMS5003;48653;51.742;-1.256;2024-01-16T02:04:56;43;37;
62054;PMS5003;48653;51.742;-1.256;2024-01-16T02:07:22;32;27;
62054;PMS5003;48653;51.742;-1.256;2024-01-16T02:09:47;39;30;
62054;PMS5003;48653;51.742;-1.256;2024-01-16T02:12:14;35;31;
62054;PMS5003;48653;51.742;-1.256;2024-01-16T02:14:38;36;29;
62054;PMS5003;48653;51.742;-1.256;2024-01-16T02:17:04;33;31;
62054;PMS5003;48653;51.742;-1.256;2024-01-16T02:19:30;39;29;
62054;PMS5003;48653;51.742;-1.256;2024-01-16T02:21:57;33;26;
62054;PMS5003;48653;51.742;-1.256;2024-01-16T02:24:20;37;33;
62054;PMS5003;48653;51.742;-1.256;2024-01-16T02:26:47;43;34;
62054;PMS5003;48653;51.742;-1.256;2024-01-16T02:29:12;35;29;
62054;PMS5003;48653;51.742;-1.256;2024-01-16T02:31:37;37;31;
62054;PMS5003;48653;51.742;-1.256;2024-01-16T02:34:03;35;29;
62054;PMS5003;48653;51.742;-1.256;2024-01-16T02:36:29;39;31;
62054;PMS5003;48653;51.742;-1.256;2024-01-16T02:38:54;44;36;
62054;PMS5003;48653;51.742;-1.256;2024-01-16T02:41:19;40;33;
62054;PMS5003;48653;51.742;-1.256;2024-01-16T02:43:45;40;35;
62054;PMS5003;48653;51.742;-1.256;2024-01-16T02:46:10;40;31;
62054;PMS5003;48653;51.742;-1.256;2024-01-16T02:48:35;40;35;
62054;PMS5003;48653;51.742;-1.256;2024-01-16T02:51:01;37;32;
62054;PMS5003;48653;51.742;-1.256;2024-01-16T02:53:26;36;33;
62054;PMS5003;48653;51.742;-1.256;2024-01-16T02:55:52;35;28;
62054;PMS5003;48653;51.742;-1.256;2024-01-16T02:58:17;29;26;
62054;PMS5003;48653;51.742;-1.256;2024-01-16T03:00:43;33;27;
62054;PMS5003;48653;51.742;-1.256;2024-01-16T03:03:08;36;29;
62054;PMS5003;48653;51.742;-1.256;2024-01-16T03:05:34;35;32;
62054;PMS5003;48653;51.742;-1.256;2024-01-16T03:08:00;32;30;
62054;PMS5003;48653;51.742;-1.256;2024-01-16T03:10:25;33;24;
62054;PMS5003;48653;51.742;-1.256;2024-01-16T03:12:51;30;25;
62054;PMS5003;48653;51.742;-1.256;2024-01-16T03:15:16;32;26;
62054;PMS5003;48653;51.742;-1.256;2024-01-16T03:17:42;40;33;
62054;PMS5003;48653;51.742;-1.256;2024-01-16T03:20:07;41;31;
62054;PMS5003;48653;51.742;-1.256;2024-01-16T03:22:32;34;31;
62054;PMS5003;48653;51.742;-1.256;2024-01-16T03:24:58;37;32;
62054;PMS5003;48653;51.742;-1.256;2024-01-16T03:27:23;42;32;
62054;PMS5003;48653;51.742;-1.256;2024-01-16T03:29:49;32;28;
62054;PMS5003;48653;51.742;-1.256;2024-01-16T03:32:15;40;34;
62054;PMS5003;48653;51.742;-1.256;2024-01-16T03:34:39;38;29;
62054;PMS5003;48653;51.742;-1.256;2024-01-16T03:37:05;42;35;
62054;PMS5003;48653;51.742;-1.256;2024-01-16T03:41:56;46;39;
62054;PMS5003;48653;51.742;-1.256;2024-01-16T03:44:21;40;35;
62054;PMS5003;48653;51.742;-1.256;2024-01-16T03:46:47;35;31;
62054;PMS5003;48653;51.742;-1.256;2024-01-16T03:49:13;39;32;
62054;PMS5003;48653;51.742;-1.256;2024-01-16T03:51:38;40;34;
62054;PMS5003;48653;51.742;-1.256;2024-01-16T03:54:03;46;39;
62054;PMS5003;48653;51.742;-1.256;2024-01-16T03:56:29;34;29;
62054;PMS5003;48653;51.742;-1.256;2024-01-16T03:58:55;41;33;
62054;PMS5003;48653;51.742;-1.256;2024-01-16T04:03:45;32;26;
62054;PMS5003;48653;51.742;-1.256;2024-01-16T04:06:14;31;26;
62054;PMS5003;48653;51.742;-1.256;2024-01-16T04:08:36;33;26;
62054;PMS5003;48653;51.742;-1.256;2024-01-16T04:11:02;31;21;
62054;PMS5003;48653;51.742;-1.256;2024-01-16T04:13:27;28;23;
62054;PMS5003;48653;51.742;-1.256;2024-01-16T04:15:52;32;24;
62054;PMS5003;48653;51.742;-1.256;2024-01-16T04:18:17;36;26;
62054;PMS5003;48653;51.742;-1.256;2024-01-16T04:20:43;25;25;
62054;PMS5003;48653;51.742;-1.256;2024-01-16T04:23:08;27;22;
62054;PMS5003;48653;51.742;-1.256;2024-01-16T04:25:34;31;24;
62054;PMS5003;48653;51.742;-1.256;2024-01-16T04:28:00;22;21;
62054;PMS5003;48653;51.742;-1.256;2024-01-16T04:30:25;30;24;
62054;PMS5003;48653;51.742;-1.256;2024-01-16T04:32:50;27;26;
62054;PMS5003;48653;51.742;-1.256;2024-01-16T04:35:16;27;24;
62054;PMS5003;48653;51.742;-1.256;2024-01-16T04:37:41;31;26;
62054;PMS5003;48653;51.742;-1.256;2024-01-16T04:40:07;35;28;
62054;PMS5003;48653;51.742;-1.256;2024-01-16T04:42:32;29;27;
62054;PMS5003;48653;51.742;-1.256;2024-01-16T04:44:57;35;29;
62054;PMS5003;48653;51.742;-1.256;2024-01-16T04:47:22;36;31;
62054;PMS5003;48653;51.742;-1.256;2024-01-16T04:49:48;32;28;
62054;PMS5003;48653;51.742;-1.256;2024-01-16T04:52:14;27;26;
62054;PMS5003;48653;51.742;-1.256;2024-01-16T04:54:39;24;21;
62054;PMS5003;48653;51.742;-1.256;2024-01-16T04:57:05;36;29;
62054;PMS5003;48653;51.742;-1.256;2024-01-16T04:59:30;38;27;
62054;PMS5003;48653;51.742;-1.256;2024-01-16T05:01:56;27;25;
62054;PMS5003;48653;51.742;-1.256;2024-01-16T05:04:22;28;24;
62054;PMS5003;48653;51.742;-1.256;2024-01-16T05:06:50;24;24;
62054;PMS5003;48653;51.742;-1.256;2024-01-16T05:09:12;27;22;
62054;PMS5003;48653;51.742;-1.256;2024-01-16T05:11:38;25;21;
62054;PMS5003;48653;51.742;-1.256;2024-01-16T05:14:03;30;20;
62054;PMS5003;48653;51.742;-1.256;2024-01-16T05:16:29;31;26;
62054;PMS5003;48653;51.742;-1.256;2024-01-16T05:18:55;29;21;
62054;PMS5003;48653;51.742;-1.256;2024-01-16T05:21:21;29;24;
62054;PMS5003;48653;51.742;-1.256;2024-01-16T05:23:46;26;19;
62054;PMS5003;48653;51.742;-1.256;2024-01-16T05:26:12;25;19;
62054;PMS5003;48653;51.742;-1.256;2024-01-16T05:28:38;19;17;
62054;PMS5003;48653;51.742;-1.256;2024-01-16T05:31:04;21;16;
62054;PMS5003;48653;51.742;-1.256;2024-01-16T05:33:30;21;16;
62054;PMS5003;48653;51.742;-1.256;2024-01-16T05:35:56;20;18;
62054;PMS5003;48653;51.742;-1.256;2024-01-16T05:38:22;14;14;
62054;PMS5003;48653;51.742;-1.256;2024-01-16T05:40:46;18;14;
62054;PMS5003;48653;51.742;-1.256;2024-01-16T05:43:12;22;19;
62054;PMS5003;48653;51.742;-1.256;2024-01-16T05:45:37;18;13;
62054;PMS5003;48653;51.742;-1.256;2024-01-16T05:48:03;21;17;
62054;PMS5003;48653;51.742;-1.256;2024-01-16T05:50:28;14;14;
62054;PMS5003;48653;51.742;-1.256;2024-01-16T05:52:54;15;12;
62054;PMS5003;48653;51.742;-1.256;2024-01-16T05:55:19;18;15;
62054;PMS5003;48653;51.742;-1.256;2024-01-16T05:57:45;18;13;
62054;PMS5003;48653;51.742;-1.256;2024-01-16T06:00:12;15;13;
62054;PMS5003;48653;51.742;-1.256;2024-01-16T06:02:37;18;14;
62054;PMS5003;48653;51.742;-1.256;2024-01-16T06:05:02;15;12;
62054;PMS5003;48653;51.742;-1.256;2024-01-16T06:07:27;17;13;
62054;PMS5003;48653;51.742;-1.256;2024-01-16T06:12:19;23;20;
62054;PMS5003;48653;51.742;-1.256;2024-01-16T06:14:44;18;15;
62054;PMS5003;48653;51.742;-1.256;2024-01-16T06:17:10;21;17;
62054;PMS5003;48653;51.742;-1.256;2024-01-16T06:19:35;21;19;
62054;PMS5003;48653;51.742;-1.256;2024-01-16T06:22:00;23;19;
62054;PMS5003;48653;51.742;-1.256;2024-01-16T06:24:25;22;18;
62054;PMS5003;48653;51.742;-1.256;2024-01-16T06:26:51;23;20;
62054;PMS5003;48653;51.742;-1.256;2024-01-16T06:29:16;19;19;
62054;PMS5003;48653;51.742;-1.256;2024-01-16T06:31:41;22;20;
62054;PMS5003;48653;51.742;-1.256;2024-01-16T06:34:08;18;17;
62054;PMS5003;48653;51.742;-1.256;2024-01-16T06:36:33;28;23;
62054;PMS5003;48653;51.742;-1.256;2024-01-16T06:38:58;24;20;
62054;PMS5003;48653;51.742;-1.256;2024-01-16T06:41:24;26;21;
62054;PMS5003;48653;51.742;-1.256;2024-01-16T06:43:49;26;24;
62054;PMS5003;48653;51.742;-1.256;2024-01-16T06:46:15;32;27;
62054;PMS5003;48653;51.742;-1.256;2024-01-16T06:48:40;23;20;
62054;PMS5003;48653;51.742;-1.256;2024-01-16T06:51:05;27;22;
62054;PMS5003;48653;51.742;-1.256;2024-01-16T06:53:31;21;19;
62054;PMS5003;48653;51.742;-1.256;2024-01-16T06:55:56;32;24;
62054;PMS5003;48653;51.742;-1.256;2024-01-16T06:58:22;21;21;
62054;PMS5003;48653;51.742;-1.256;2024-01-16T07:00:47;26;22;
62054;PMS5003;48653;51.742;-1.256;2024-01-16T07:03:13;28;22;
62054;PMS5003;48653;51.742;-1.256;2024-01-16T07:05:38;32;22;
62054;PMS5003;48653;51.742;-1.256;2024-01-16T07:08:04;22;22;
62054;PMS5003;48653;51.742;-1.256;2024-01-16T07:10:29;23;19;
62054;PMS5003;48653;51.742;-1.256;2024-01-16T07:12:55;28;24;
62054;PMS5003;48653;51.742;-1.256;2024-01-16T07:17:49;35;26;
62054;PMS5003;48653;51.742;-1.256;2024-01-16T07:20:11;27;23;
62054;PMS5003;48653;51.742;-1.256;2024-01-16T07:22:37;31;24;
62054;PMS5003;48653;51.742;-1.256;2024-01-16T07:25:02;25;22;
62054;PMS5003;48653;51.742;-1.256;2024-01-16T07:27:28;33;24;
62054;PMS5003;48653;51.742;-1.256;2024-01-16T07:29:53;29;22;
62054;PMS5003;48653;51.742;-1.256;2024-01-16T07:32:18;25;21;
62054;PMS5003;48653;51.742;-1.256;2024-01-16T07:34:43;31;25;
62054;PMS5003;48653;51.742;-1.256;2024-01-16T07:37:09;22;20;
62054;PMS5003;48653;51.742;-1.256;2024-01-16T07:39:35;27;19;
62054;PMS5003;48653;51.742;-1.256;2024-01-16T07:42:00;25;20;
62054;PMS5003;48653;51.742;-1.256;2024-01-16T07:44:26;21;21;
62054;PMS5003;48653;51.742;-1.256;2024-01-16T07:46:51;29;24;
62054;PMS5003;48653;51.742;-1.256;2024-01-16T07:49:17;41;34;
62054;PMS5003;48653;51.742;-1.256;2024-01-16T07:51:43;41;34;
62054;PMS5003;48653;51.742;-1.256;2024-01-16T07:54:09;32;26;
62054;PMS5003;48653;51.742;-1.256;2024-01-16T07:56:34;35;31;
62054;PMS5003;48653;51.742;-1.256;2024-01-16T07:58:59;36;29;
62054;PMS5003;48653;51.742;-1.256;2024-01-16T08:01:25;29;23;
62054;PMS5003;48653;51.742;-1.256;2024-01-16T08:03:51;24;17;
62054;PMS5003;48653;51.742;-1.256;2024-01-16T08:06:16;19;16;
62054;PMS5003;48653;51.742;-1.256;2024-01-16T08:08:41;22;17;
62054;PMS5003;48653;51.742;-1.256;2024-01-16T08:11:07;20;17;
62054;PMS5003;48653;51.742;-1.256;2024-01-16T08:13:33;22;16;
62054;PMS5003;48653;51.742;-1.256;2024-01-16T08:15:58;25;21;
62054;PMS5003;48653;51.742;-1.256;2024-01-16T08:18:26;21;20;
62054;PMS5003;48653;51.742;-1.256;2024-01-16T08:20:49;17;17;
62054;PMS5003;48653;51.742;-1.256;2024-01-16T08:23:15;21;15;
62054;PMS5003;48653;51.742;-1.256;2024-01-16T08:25:41;20;16;
62054;PMS5003;48653;51.742;-1.256;2024-01-16T08:28:06;16;12;
62054;PMS5003;48653;51.742;-1.256;2024-01-16T08:30:32;17;14;
62054;PMS5003;48653;51.742;-1.256;2024-01-16T08:32:57;12;12;
62054;PMS5003;48653;51.742;-1.256;2024-01-16T08:35:22;17;13;
62054;PMS5003;48653;51.742;-1.256;2024-01-16T08:37:48;17;13;
62054;PMS5003;48653;51.742;-1.256;2024-01-16T08:40:13;16;12;
62054;PMS5003;48653;51.742;-1.256;2024-01-16T08:42:39;13;10;
62054;PMS5003;48653;51.742;-1.256;2024-01-16T08:45:04;13;12;
62054;PMS5003;48653;51.742;-1.256;2024-01-16T08:47:29;12;8;
62054;PMS5003;48653;51.742;-1.256;2024-01-16T08:49:54;13;13;
62054;PMS5003;48653;51.742;-1.256;2024-01-16T08:52:20;15;12;
62054;PMS5003;48653;51.742;-1.256;2024-01-16T08:54:46;16;12;
62054;PMS5003;48653;51.742;-1.256;2024-01-16T08:59:35;13;11;
62054;PMS5003;48653;51.742;-1.256;2024-01-16T09:02:00;15;12;
62054;PMS5003;48653;51.742;-1.256;2024-01-16T09:04:25;12;7;
62054;PMS5003;48653;51.742;-1.256;2024-01-16T09:06:51;8;8;
62054;PMS5003;48653;51.742;-1.256;2024-01-16T09:09:17;14;13;
62054;PMS5003;48653;51.742;-1.256;2024-01-16T09:11:42;14;8;
62054;PMS5003;48653;51.742;-1.256;2024-01-16T09:14:07;15;10;
62054;PMS5003;48653;51.742;-1.256;2024-01-16T09:16:33;9;8;
62054;PMS5003;48653;51.742;-1.256;2024-01-16T09:18:58;10;8;
62054;PMS5003;48653;51.742;-1.256;2024-01-16T09:21:24;14;8;
62054;PMS5003;48653;51.742;-1.256;2024-01-16T09:23:49;13;12;
62054;PMS5003;48653;51.742;-1.256;2024-01-16T09:26:16;13;12;
62054;PMS5003;48653;51.742;-1.256;2024-01-16T09:28:40;13;13;
62054;PMS5003;48653;51.742;-1.256;2024-01-16T09:31:06;13;12;
62054;PMS5003;48653;51.742;-1.256;2024-01-16T09:33:33;17;14;
62054;PMS5003;48653;51.742;-1.256;2024-01-16T09:35:58;22;17;
62054;PMS5003;48653;51.742;-1.256;2024-01-16T09:38:23;19;18;
62054;PMS5003;48653;51.742;-1.256;2024-01-16T09:40:49;20;17;
62054;PMS5003;48653;51.742;-1.256;2024-01-16T09:43:15;17;14;
62054;PMS5003;48653;51.742;-1.256;2024-01-16T09:45:40;20;18;
62054;PMS5003;48653;51.742;-1.256;2024-01-16T09:48:06;21;21;
62054;PMS5003;48653;51.742;-1.256;2024-01-16T09:50:32;21;17;
62054;PMS5003;48653;51.742;-1.256;2024-01-16T09:52:57;18;17;
62054;PMS5003;48653;51.742;-1.256;2024-01-16T09:55:22;19;14;
62054;PMS5003;48653;51.742;-1.256;2024-01-16T09:57:49;21;19;
62054;PMS5003;48653;51.742;-1.256;2024-01-16T10:00:13;25;17;
62054;PMS5003;48653;51.742;-1.256;2024-01-16T10:02:40;18;15;
62054;PMS5003;48653;51.742;-1.256;2024-01-16T10:05:05;16;15;
62054;PMS5003;48653;51.742;-1.256;2024-01-16T10:07:30;18;17;
62054;PMS5003;48653;51.742;-1.256;2024-01-16T10:09:56;25;16;
62054;PMS5003;48653;51.742;-1.256;2024-01-16T10:12:22;18;13;
62054;PMS5003;48653;51.742;-1.256;2024-01-16T10:14:47;15;13;
62054;PMS5003;48653;51.742;-1.256;2024-01-16T10:17:13;25;19;
62054;PMS5003;48653;51.742;-1.256;2024-01-16T10:19:45;19;11;
62054;PMS5003;48653;51.742;-1.256;2024-01-16T10:22:04;14;13;
62054;PMS5003;48653;51.742;-1.256;2024-01-16T10:24:29;16;16;
62054;PMS5003;48653;51.742;-1.256;2024-01-16T10:26:57;13;11;
62054;PMS5003;48653;51.742;-1.256;2024-01-16T10:29:20;18;10;
62054;PMS5003;48653;51.742;-1.256;2024-01-16T10:31:45;14;11;
62054;PMS5003;48653;51.742;-1.256;2024-01-16T10:36:36;18;13;
62054;PMS5003;48653;51.742;-1.256;2024-01-16T10:39:03;10;8;
62054;PMS5003;48653;51.742;-1.256;2024-01-16T10:41:26;11;11;
62054;PMS5003;48653;51.742;-1.256;2024-01-16T10:46:17;12;10;
62054;PMS5003;48653;51.742;-1.256;2024-01-16T10:48:44;11;11;
62054;PMS5003;48653;51.742;-1.256;2024-01-16T10:51:08;10;8;
62054;PMS5003;48653;51.742;-1.256;2024-01-16T10:53:33;9;8;
62054;PMS5003;48653;51.742;-1.256;2024-01-16T10:55:59;10;8;
62054;PMS5003;48653;51.742;-1.256;2024-01-16T10:58:24;11;8;
62054;PMS5003;48653;51.742;-1.256;2024-01-16T11:00:50;9;6;
62054;PMS5003;48653;51.742;-1.256;2024-01-16T11:03:16;8;6;
62054;PMS5003;48653;51.742;-1.256;2024-01-16T11:05:39;8;5;
62054;PMS5003;48653;51.742;-1.256;2024-01-16T11:08:05;6;6;
62054;PMS5003;48653;51.742;-1.256;2024-01-16T11:10:30;11;10;
62054;PMS5003;48653;51.742;-1.256;2024-01-16T11:12:56;12;11;
62054;PMS5003;48653;51.742;-1.256;2024-01-16T11:15:20;15;11;
62054;PMS5003;48653;51.742;-1.256;2024-01-16T11:17:46;17;10;
62054;PMS5003;48653;51.742;-1.256;2024-01-16T11:20:11;12;10;
62054;PMS5003;48653;51.742;-1.256;2024-01-16T11:37:08;14;13;
62054;PMS5003;48653;51.742;-1.256;2024-01-16T11:39:34;17;14;
62054;PMS5003;48653;51.742;-1.256;2024-01-16T11:41:59;17;15;
62054;PMS5003;48653;51.742;-1.256;2024-01-16T11:54:06;11;9;
62054;PMS5003;48653;51.742;-1.256;2024-01-16T11:56:38;11;8;
62054;PMS5003;48653;51.742;-1.256;2024-01-16T11:59:00;8;7;
62054;PMS5003;48653;51.742;-1.256;2024-01-16T12:01:22;11;8;
62054;PMS5003;48653;51.742;-1.256;2024-01-16T12:06:15;14;9;
62054;PMS5003;48653;51.742;-1.256;2024-01-16T12:08:38;9;8;
62054;PMS5003;48653;51.742;-1.256;2024-01-16T12:11:04;14;11;
62054;PMS5003;48653;51.742;-1.256;2024-01-16T12:13:29;15;15;
62054;PMS5003;48653;51.742;-1.256;2024-01-16T12:15:59;16;13;
62054;PMS5003;48653;51.742;-1.256;2024-01-16T12:18:20;14;12;
62054;PMS5003;48653;51.742;-1.256;2024-01-16T12:20:45;14;10;
62054;PMS5003;48653;51.742;-1.256;2024-01-16T12:23:11;13;12;
62054;PMS5003;48653;51.742;-1.256;2024-01-16T12:25:36;8;7;
62054;PMS5003;48653;51.742;-1.256;2024-01-16T12:28:03;5;4;
62054;PMS5003;48653;51.742;-1.256;2024-01-16T12:30:26;5;4;
62054;PMS5003;48653;51.742;-1.256;2024-01-16T12:35:19;2;2;
62054;PMS5003;48653;51.742;-1.256;2024-01-16T12:37:42;2;2;
62054;PMS5003;48653;51.742;-1.256;2024-01-16T12:44:57;8;6;
62054;PMS5003;48653;51.742;-1.256;2024-01-16T12:47:23;5;4;
62054;PMS5003;48653;51.742;-1.256;2024-01-16T12:52:14;5;3;
62054;PMS5003;48653;51.742;-1.256;2024-01-16T12:54:38;6;5;
62054;PMS5003;48653;51.742;-1.256;2024-01-16T12:57:04;5;5;
62054;PMS5003;48653;51.742;-1.256;2024-01-16T12:59:29;5;5;
62054;PMS5003;48653;51.742;-1.256;2024-01-16T13:01:54;5;4;
62054;PMS5003;48653;51.742;-1.256;2024-01-16T13:04:19;7;4;
62054;PMS5003;48653;51.742;-1.256;2024-01-16T13:06:44;4;4;
62054;PMS5003;48653;51.742;-1.256;2024-01-16T13:09:17;8;4;
62054;PMS5003;48653;51.742;-1.256;2024-01-16T13:14:00;4;4;
62054;PMS5003;48653;51.742;-1.256;2024-01-16T13:16:25;6;6;
62054;PMS5003;48653;51.742;-1.256;2024-01-16T13:21:15;6;5;
62054;PMS5003;48653;51.742;-1.256;2024-01-16T13:23:41;7;3;
62054;PMS5003;48653;51.742;-1.256;2024-01-16T13:26:05;6;6;
62054;PMS5003;48653;51.742;-1.256;2024-01-16T13:28:30;8;4;
62054;PMS5003;48653;51.742;-1.256;2024-01-16T13:33:22;6;6;
62054;PMS5003;48653;51.742;-1.256;2024-01-16T13:35:50;7;7;
62054;PMS5003;48653;51.742;-1.256;2024-01-16T13:38:11;4;4;
62054;PMS5003;48653;51.742;-1.256;2024-01-16T13:40:37;3;3;
62054;PMS5003;48653;51.742;-1.256;2024-01-16T13:43:12;6;3;
62054;PMS5003;48653;51.742;-1.256;2024-01-16T13:45:34;6;4;
62054;PMS5003;48653;51.742;-1.256;2024-01-16T13:47:51;7;6;
62054;PMS5003;48653;51.742;-1.256;2024-01-16T13:59:58;3;3;
62054;PMS5003;48653;51.742;-1.256;2024-01-16T14:02:23;5;3;
62054;PMS5003;48653;51.742;-1.256;2024-01-16T14:04:48;2;2;
62054;PMS5003;48653;51.742;-1.256;2024-01-16T14:07:13;5;3;
62054;PMS5003;48653;51.742;-1.256;2024-01-16T14:09:38;3;3;
62054;PMS5003;48653;51.742;-1.256;2024-01-16T14:12:04;4;4;
62054;PMS5003;48653;51.742;-1.256;2024-01-16T14:14:29;11;9;
62054;PMS5003;48653;51.742;-1.256;2024-01-16T14:16:54;4;3;
62054;PMS5003;48653;51.742;-1.256;2024-01-16T14:19:19;4;4;
62054;PMS5003;48653;51.742;-1.256;2024-01-16T14:21:44;6;3;
62054;PMS5003;48653;51.742;-1.256;2024-01-16T14:24:09;3;2;
62054;PMS5003;48653;51.742;-1.256;2024-01-16T14:26:34;7;3;
62054;PMS5003;48653;51.742;-1.256;2024-01-16T14:29:00;4;4;
62054;PMS5003;48653;51.742;-1.256;2024-01-16T14:31:25;3;3;
62054;PMS5003;48653;51.742;-1.256;2024-01-16T14:33:50;2;1;
62054;PMS5003;48653;51.742;-1.256;2024-01-16T14:36:15;3;1;
62054;PMS5003;48653;51.742;-1.256;2024-01-16T14:38:42;1;1;
62054;PMS5003;48653;51.742;-1.256;2024-01-16T14:41:05;2;1;
62054;PMS5003;48653;51.742;-1.256;2024-01-16T14:43:30;1;1;
62054;PMS5003;48653;51.742;-1.256;2024-01-16T14:45:56;2;2;
62054;PMS5003;48653;51.742;-1.256;2024-01-16T14:48:21;2;2;
62054;PMS5003;48653;51.742;-1.256;2024-01-16T14:50:47;3;3;
62054;PMS5003;48653;51.742;-1.256;2024-01-16T14:53:11;3;3;
62054;PMS5003;48653;51.742;-1.256;2024-01-16T14:58:02;2;2;
62054;PMS5003;48653;51.742;-1.256;2024-01-16T15:00:27;11;7;
62054;PMS5003;48653;51.742;-1.256;2024-01-16T15:02:52;2;2;
62054;PMS5003;48653;51.742;-1.256;2024-01-16T15:10:13;3;1;
62054;PMS5003;48653;51.742;-1.256;2024-01-16T16:15:27;11;7;
62054;PMS5003;48653;51.742;-1.256;2024-01-16T16:17:53;8;6;
62054;PMS5003;48653;51.742;-1.256;2024-01-16T16:20:18;7;7;
62054;PMS5003;48653;51.742;-1.256;2024-01-16T16:22:45;10;7;
62054;PMS5003;48653;51.742;-1.256;2024-01-16T16:25:10;11;6;
62054;PMS5003;48653;51.742;-1.256;2024-01-16T17:06:18;12;11;
62054;PMS5003;48653;51.742;-1.256;2024-01-16T17:08:44;11;8;
62054;PMS5003;48653;51.742;-1.256;2024-01-16T17:11:09;10;8;
62054;PMS5003;48653;51.742;-1.256;2024-01-16T17:13:36;12;9;
62054;PMS5003;48653;51.742;-1.256;2024-01-16T17:15:59;14;13;
62054;PMS5003;48653;51.742;-1.256;2024-01-16T17:18:27;12;11;
62054;PMS5003;48653;51.742;-1.256;2024-01-16T17:20:51;27;25;
62054;PMS5003;48653;51.742;-1.256;2024-01-16T17:30:33;36;29;
62054;PMS5003;48653;51.742;-1.256;2024-01-16T17:35:24;27;21;
62054;PMS5003;48653;51.742;-1.256;2024-01-16T17:37:50;28;26;
62054;PMS5003;48653;51.742;-1.256;2024-01-16T17:40:15;28;22;
62054;PMS5003;48653;51.742;-1.256;2024-01-16T17:45:08;24;21;
62054;PMS5003;48653;51.742;-1.256;2024-01-16T17:47:33;23;19;
62054;PMS5003;48653;51.742;-1.256;2024-01-16T17:49:58;26;22;
62054;PMS5003;48653;51.742;-1.256;2024-01-16T17:52:23;19;13;
62054;PMS5003;48653;51.742;-1.256;2024-01-16T17:54:48;16;11;
62054;PMS5003;48653;51.742;-1.256;2024-01-16T17:57:13;13;12;
62054;PMS5003;48653;51.742;-1.256;2024-01-16T17:59:39;16;12;
62054;PMS5003;48653;51.742;-1.256;2024-01-16T18:02:05;20;18;
62054;PMS5003;48653;51.742;-1.256;2024-01-16T18:04:29;25;19;
62054;PMS5003;48653;51.742;-1.256;2024-01-16T18:06:55;17;14;
62054;PMS5003;48653;51.742;-1.256;2024-01-16T18:09:20;16;14;
62054;PMS5003;48653;51.742;-1.256;2024-01-16T18:11:51;15;12;
62054;PMS5003;48653;51.742;-1.256;2024-01-16T18:14:14;19;15;
62054;PMS5003;48653;51.742;-1.256;2024-01-16T18:16:36;15;11;
62054;PMS5003;48653;51.742;-1.256;2024-01-16T18:19:02;16;12;
62054;PMS5003;48653;51.742;-1.256;2024-01-16T18:26:18;24;22;
62054;PMS5003;48653;51.742;-1.256;2024-01-16T18:28:44;22;18;
62054;PMS5003;48653;51.742;-1.256;2024-01-16T18:36:01;21;16;
62054;PMS5003;48653;51.742;-1.256;2024-01-16T18:40:51;18;14;
62054;PMS5003;48653;51.742;-1.256;2024-01-16T18:43:24;20;15;
62054;PMS5003;48653;51.742;-1.256;2024-01-16T18:45:43;16;12;
62054;PMS5003;48653;51.742;-1.256;2024-01-16T18:48:07;18;16;
62054;PMS5003;48653;51.742;-1.256;2024-01-16T18:50:33;18;15;
62054;PMS5003;48653;51.742;-1.256;2024-01-16T18:52:58;16;14;
62054;PMS5003;48653;51.742;-1.256;2024-01-16T18:55:24;17;17;
62054;PMS5003;48653;51.742;-1.256;2024-01-16T18:57:50;19;14;
62054;PMS5003;48653;51.742;-1.256;2024-01-16T19:00:17;16;15;
62054;PMS5003;48653;51.742;-1.256;2024-01-16T19:05:06;19;14;
62054;PMS5003;48653;51.742;-1.256;2024-01-16T19:07:31;14;14;
62054;PMS5003;48653;51.742;-1.256;2024-01-16T19:12:22;15;11;
62054;PMS5003;48653;51.742;-1.256;2024-01-16T19:17:13;18;14;
62054;PMS5003;48653;51.742;-1.256;2024-01-16T19:22:04;17;16;
62054;PMS5003;48653;51.742;-1.256;2024-01-16T19:24:30;15;14;
62054;PMS5003;48653;51.742;-1.256;2024-01-16T19:27:00;16;14;
62054;PMS5003;48653;51.742;-1.256;2024-01-16T19:29:21;14;11;
62054;PMS5003;48653;51.742;-1.256;2024-01-16T19:31:46;16;14;